sensor_id;sensor_type;location;lat;lon;timestamp;P1;durP1;ratioP1;P2;durP2;ratioP2
1715;SDS011;855;48.824;9.220;2023-06-10T00:00:39;17.47;;;7.60;;
1715;SDS011;855;48.824;9.220;2023-06-10T00:03:08;16.27;;;8.40;;
1715;SDS011;855;48.824;9.220;2023-06-10T00:05:35;17.03;;;8.37;;
1715;SDS011;855;48.824;9.220;2023-06-10T00:08:04;16.77;;;8.70;;
1715;SDS011;855;48.824;9.220;2023-06-10T00:10:32;19.53;;;8.13;;
1715;SDS011;855;48.824;9.220;2023-06-10T00:13:00;16.30;;;7.77;;
1715;SDS011;855;48.824;9.220;2023-06-10T00:15:27;16.07;;;9.27;;
1715;SDS011;855;48.824;9.220;2023-06-10T00:17:54;18.97;;;8.43;;
1715;SDS011;855;48.824;9.220;2023-06-10T00:20:22;17.50;;;8.63;;
1715;SDS011;855;48.824;9.220;2023-06-10T00:22:50;13.10;;;7.20;;
1715;SDS011;855;48.824;9.220;2023-06-10T00:25:17;16.40;;;8.10;;
1715;SDS011;855;48.824;9.220;2023-06-10T00:27:44;14.03;;;8.63;;
1715;SDS011;855;48.824;9.220;2023-06-10T00:30:11;17.10;;;9.67;;
1715;SDS011;855;48.824;9.220;2023-06-10T00:32:38;18.77;;;9.50;;
1715;SDS011;855;48.824;9.220;2023-06-10T00:35:05;13.33;;;7.50;;
1715;SDS011;855;48.824;9.220;2023-06-10T00:37:34;19.13;;;8.43;;
1715;SDS011;855;48.824;9.220;2023-06-10T00:40:04;12.50;;;8.60;;
1715;SDS011;855;48.824;9.220;2023-06-10T00:42:34;17.30;;;8.17;;
1715;SDS011;855;48.824;9.220;2023-06-10T00:45:01;16.60;;;8.00;;
1715;SDS011;855;48.824;9.220;2023-06-10T00:47:28;15.83;;;8.27;;
1715;SDS011;855;48.824;9.220;2023-06-10T00:49:55;17.50;;;8.70;;
1715;SDS011;855;48.824;9.220;2023-06-10T00:52:22;14.43;;;8.27;;
1715;SDS011;855;48.824;9.220;2023-06-10T00:54:55;19.73;;;8.60;;
1715;SDS011;855;48.824;9.220;2023-06-10T00:57:22;13.93;;;7.90;;
1715;SDS011;855;48.824;9.220;2023-06-10T00:59:49;17.20;;;8.13;;
1715;SDS011;855;48.824;9.220;2023-06-10T01:02:16;14.63;;;7.07;;
1715;SDS011;855;48.824;9.220;2023-06-10T01:04:43;15.77;;;8.03;;
1715;SDS011;855;48.824;9.220;2023-06-10T01:07:11;15.70;;;8.10;;
1715;SDS011;855;48.824;9.220;2023-06-10T01:09:48;15.43;;;8.07;;
1715;SDS011;855;48.824;9.220;2023-06-10T01:12:24;13.73;;;6.63;;
1715;SDS011;855;48.824;9.220;2023-06-10T01:14:57;16.53;;;9.23;;
1715;SDS011;855;48.824;9.220;2023-06-10T01:17:25;13.80;;;7.53;;
1715;SDS011;855;48.824;9.220;2023-06-10T01:19:53;12.93;;;8.00;;
1715;SDS011;855;48.824;9.220;2023-06-10T01:22:23;12.53;;;7.30;;
1715;SDS011;855;48.824;9.220;2023-06-10T01:24:51;14.23;;;8.27;;
1715;SDS011;855;48.824;9.220;2023-06-10T01:27:19;15.40;;;8.27;;
1715;SDS011;855;48.824;9.220;2023-06-10T01:29:49;15.43;;;8.20;;
1715;SDS011;855;48.824;9.220;2023-06-10T01:32:22;14.10;;;7.23;;
1715;SDS011;855;48.824;9.220;2023-06-10T01:34:53;17.97;;;9.13;;
1715;SDS011;855;48.824;9.220;2023-06-10T01:37:23;15.00;;;8.33;;
1715;SDS011;855;48.824;9.220;2023-06-10T01:39:52;13.77;;;8.00;;
1715;SDS011;855;48.824;9.220;2023-06-10T01:42:21;15.37;;;7.70;;
1715;SDS011;855;48.824;9.220;2023-06-10T01:44:48;13.70;;;7.90;;
1715;SDS011;855;48.824;9.220;2023-06-10T01:47:15;14.07;;;7.57;;
1715;SDS011;855;48.824;9.220;2023-06-10T01:49:42;19.60;;;8.00;;
1715;SDS011;855;48.824;9.220;2023-06-10T01:52:09;16.33;;;8.10;;
1715;SDS011;855;48.824;9.220;2023-06-10T01:54:37;11.50;;;7.00;;
1715;SDS011;855;48.824;9.220;2023-06-10T01:57:04;17.37;;;8.37;;
1715;SDS011;855;48.824;9.220;2023-06-10T01:59:31;15.03;;;8.20;;
1715;SDS011;855;48.824;9.220;2023-06-10T02:01:58;17.20;;;8.40;;
1715;SDS011;855;48.824;9.220;2023-06-10T02:04:25;16.33;;;8.00;;
1715;SDS011;855;48.824;9.220;2023-06-10T02:06:52;15.87;;;8.57;;
1715;SDS011;855;48.824;9.220;2023-06-10T02:09:20;16.73;;;8.30;;
1715;SDS011;855;48.824;9.220;2023-06-10T02:11:49;10.43;;;7.10;;
1715;SDS011;855;48.824;9.220;2023-06-10T02:14:16;12.80;;;8.37;;
1715;SDS011;855;48.824;9.220;2023-06-10T02:16:43;11.40;;;6.77;;
1715;SDS011;855;48.824;9.220;2023-06-10T02:19:10;15.60;;;7.70;;
1715;SDS011;855;48.824;9.220;2023-06-10T02:21:38;18.67;;;9.03;;
1715;SDS011;855;48.824;9.220;2023-06-10T02:24:05;16.43;;;7.80;;
1715;SDS011;855;48.824;9.220;2023-06-10T02:26:33;16.23;;;8.80;;
1715;SDS011;855;48.824;9.220;2023-06-10T02:29:01;14.77;;;9.00;;
1715;SDS011;855;48.824;9.220;2023-06-10T02:31:28;17.20;;;9.37;;
1715;SDS011;855;48.824;9.220;2023-06-10T02:33:55;15.80;;;8.17;;
1715;SDS011;855;48.824;9.220;2023-06-10T02:36:22;18.23;;;8.90;;
1715;SDS011;855;48.824;9.220;2023-06-10T02:38:49;20.40;;;9.00;;
1715;SDS011;855;48.824;9.220;2023-06-10T02:41:16;15.97;;;8.80;;
1715;SDS011;855;48.824;9.220;2023-06-10T02:43:43;17.20;;;9.40;;
1715;SDS011;855;48.824;9.220;2023-06-10T02:46:14;16.73;;;8.50;;
1715;SDS011;855;48.824;9.220;2023-06-10T02:48:41;13.87;;;8.63;;
1715;SDS011;855;48.824;9.220;2023-06-10T02:51:09;19.03;;;9.97;;
1715;SDS011;855;48.824;9.220;2023-06-10T02:53:35;13.90;;;8.43;;
1715;SDS011;855;48.824;9.220;2023-06-10T02:56:02;16.37;;;8.50;;
1715;SDS011;855;48.824;9.220;2023-06-10T02:58:29;17.00;;;8.47;;
1715;SDS011;855;48.824;9.220;2023-06-10T03:00:56;17.73;;;8.40;;
1715;SDS011;855;48.824;9.220;2023-06-10T03:03:25;15.93;;;9.63;;
1715;SDS011;855;48.824;9.220;2023-06-10T03:05:54;19.77;;;9.43;;
1715;SDS011;855;48.824;9.220;2023-06-10T03:08:21;20.00;;;8.47;;
1715;SDS011;855;48.824;9.220;2023-06-10T03:10:48;17.43;;;9.10;;
1715;SDS011;855;48.824;9.220;2023-06-10T03:13:15;14.80;;;7.97;;
1715;SDS011;855;48.824;9.220;2023-06-10T03:15:42;16.13;;;9.07;;
1715;SDS011;855;48.824;9.220;2023-06-10T03:18:09;15.80;;;9.67;;
1715;SDS011;855;48.824;9.220;2023-06-10T03:20:37;15.80;;;8.43;;
1715;SDS011;855;48.824;9.220;2023-06-10T03:23:04;15.27;;;8.30;;
1715;SDS011;855;48.824;9.220;2023-06-10T03:25:32;22.63;;;8.80;;
1715;SDS011;855;48.824;9.220;2023-06-10T03:27:58;16.37;;;9.00;;
1715;SDS011;855;48.824;9.220;2023-06-10T03:30:26;13.93;;;9.20;;
1715;SDS011;855;48.824;9.220;2023-06-10T03:32:53;14.37;;;7.87;;
1715;SDS011;855;48.824;9.220;2023-06-10T03:35:20;14.50;;;8.23;;
1715;SDS011;855;48.824;9.220;2023-06-10T03:37:48;21.83;;;9.00;;
1715;SDS011;855;48.824;9.220;2023-06-10T03:40:15;21.10;;;9.03;;
1715;SDS011;855;48.824;9.220;2023-06-10T03:42:42;23.27;;;8.73;;
1715;SDS011;855;48.824;9.220;2023-06-10T03:45:09;18.63;;;8.37;;
1715;SDS011;855;48.824;9.220;2023-06-10T03:47:37;19.13;;;9.57;;
1715;SDS011;855;48.824;9.220;2023-06-10T03:50:06;13.77;;;6.63;;
1715;SDS011;855;48.824;9.220;2023-06-10T03:52:34;12.50;;;7.00;;
1715;SDS011;855;48.824;9.220;2023-06-10T03:55:02;15.00;;;7.53;;
1715;SDS011;855;48.824;9.220;2023-06-10T03:57:30;13.43;;;8.60;;
1715;SDS011;855;48.824;9.220;2023-06-10T03:59:57;18.63;;;8.03;;
1715;SDS011;855;48.824;9.220;2023-06-10T04:02:24;12.43;;;7.23;;
1715;SDS011;855;48.824;9.220;2023-06-10T04:04:51;10.70;;;6.40;;
1715;SDS011;855;48.824;9.220;2023-06-10T04:07:18;12.80;;;7.40;;
1715;SDS011;855;48.824;9.220;2023-06-10T04:09:45;13.23;;;6.27;;
1715;SDS011;855;48.824;9.220;2023-06-10T04:12:14;17.67;;;8.10;;
1715;SDS011;855;48.824;9.220;2023-06-10T04:14:44;16.03;;;7.27;;
1715;SDS011;855;48.824;9.220;2023-06-10T04:17:10;13.30;;;8.13;;
1715;SDS011;855;48.824;9.220;2023-06-10T04:19:37;11.73;;;6.90;;
1715;SDS011;855;48.824;9.220;2023-06-10T04:22:06;21.83;;;8.43;;
1715;SDS011;855;48.824;9.220;2023-06-10T04:24:33;11.43;;;7.67;;
1715;SDS011;855;48.824;9.220;2023-06-10T04:27:00;13.97;;;7.23;;
1715;SDS011;855;48.824;9.220;2023-06-10T04:29:29;18.63;;;6.93;;
1715;SDS011;855;48.824;9.220;2023-06-10T04:31:56;11.40;;;6.50;;
1715;SDS011;855;48.824;9.220;2023-06-10T04:34:23;14.07;;;7.30;;
1715;SDS011;855;48.824;9.220;2023-06-10T04:36:50;12.87;;;7.27;;
1715;SDS011;855;48.824;9.220;2023-06-10T04:39:17;15.27;;;7.60;;
1715;SDS011;855;48.824;9.220;2023-06-10T04:41:44;13.83;;;7.33;;
1715;SDS011;855;48.824;9.220;2023-06-10T04:44:11;17.00;;;7.83;;
1715;SDS011;855;48.824;9.220;2023-06-10T04:46:40;14.30;;;6.47;;
1715;SDS011;855;48.824;9.220;2023-06-10T04:49:07;14.47;;;7.40;;
1715;SDS011;855;48.824;9.220;2023-06-10T04:51:33;12.10;;;6.03;;
1715;SDS011;855;48.824;9.220;2023-06-10T04:54:00;8.40;;;5.80;;
1715;SDS011;855;48.824;9.220;2023-06-10T04:56:28;13.17;;;6.20;;
1715;SDS011;855;48.824;9.220;2023-06-10T04:58:56;10.43;;;6.00;;
1715;SDS011;855;48.824;9.220;2023-06-10T05:01:22;9.33;;;5.10;;
1715;SDS011;855;48.824;9.220;2023-06-10T05:03:51;8.57;;;5.27;;
1715;SDS011;855;48.824;9.220;2023-06-10T05:06:18;15.20;;;7.10;;
1715;SDS011;855;48.824;9.220;2023-06-10T05:08:45;10.60;;;5.23;;
1715;SDS011;855;48.824;9.220;2023-06-10T05:11:13;8.87;;;4.40;;
1715;SDS011;855;48.824;9.220;2023-06-10T05:13:41;8.93;;;5.00;;
1715;SDS011;855;48.824;9.220;2023-06-10T05:16:09;6.87;;;4.73;;
1715;SDS011;855;48.824;9.220;2023-06-10T05:18:35;8.23;;;5.43;;
1715;SDS011;855;48.824;9.220;2023-06-10T05:21:04;9.23;;;4.73;;
1715;SDS011;855;48.824;9.220;2023-06-10T05:23:32;8.87;;;4.50;;
1715;SDS011;855;48.824;9.220;2023-06-10T05:25:59;20.47;;;5.20;;
1715;SDS011;855;48.824;9.220;2023-06-10T05:28:26;7.13;;;4.97;;
1715;SDS011;855;48.824;9.220;2023-06-10T05:30:53;6.83;;;4.40;;
1715;SDS011;855;48.824;9.220;2023-06-10T05:33:20;6.27;;;3.63;;
1715;SDS011;855;48.824;9.220;2023-06-10T05:35:50;6.77;;;4.33;;
1715;SDS011;855;48.824;9.220;2023-06-10T05:38:18;6.07;;;4.40;;
1715;SDS011;855;48.824;9.220;2023-06-10T05:40:45;6.43;;;3.97;;
1715;SDS011;855;48.824;9.220;2023-06-10T05:43:12;16.20;;;5.60;;
1715;SDS011;855;48.824;9.220;2023-06-10T05:45:39;6.37;;;4.17;;
1715;SDS011;855;48.824;9.220;2023-06-10T05:48:06;9.83;;;4.90;;
1715;SDS011;855;48.824;9.220;2023-06-10T05:50:33;8.40;;;4.47;;
1715;SDS011;855;48.824;9.220;2023-06-10T05:53:03;8.30;;;4.27;;
1715;SDS011;855;48.824;9.220;2023-06-10T05:55:33;7.23;;;3.90;;
1715;SDS011;855;48.824;9.220;2023-06-10T05:58:01;9.20;;;3.63;;
1715;SDS011;855;48.824;9.220;2023-06-10T06:00:30;10.30;;;3.87;;
1715;SDS011;855;48.824;9.220;2023-06-10T06:02:57;4.63;;;3.13;;
1715;SDS011;855;48.824;9.220;2023-06-10T06:05:24;6.40;;;3.90;;
1715;SDS011;855;48.824;9.220;2023-06-10T06:07:51;6.13;;;3.23;;
1715;SDS011;855;48.824;9.220;2023-06-10T06:10:18;6.70;;;3.90;;
1715;SDS011;855;48.824;9.220;2023-06-10T06:12:46;5.93;;;3.23;;
1715;SDS011;855;48.824;9.220;2023-06-10T06:15:13;5.30;;;3.80;;
1715;SDS011;855;48.824;9.220;2023-06-10T06:17:40;6.50;;;4.03;;
1715;SDS011;855;48.824;9.220;2023-06-10T06:20:07;7.53;;;4.00;;
1715;SDS011;855;48.824;9.220;2023-06-10T06:22:34;9.50;;;3.90;;
1715;SDS011;855;48.824;9.220;2023-06-10T06:25:01;6.30;;;4.20;;
1715;SDS011;855;48.824;9.220;2023-06-10T06:27:28;5.97;;;3.80;;
1715;SDS011;855;48.824;9.220;2023-06-10T06:29:56;6.90;;;3.70;;
1715;SDS011;855;48.824;9.220;2023-06-10T06:32:24;5.70;;;3.73;;
1715;SDS011;855;48.824;9.220;2023-06-10T06:34:52;5.47;;;3.60;;
1715;SDS011;855;48.824;9.220;2023-06-10T06:37:20;7.67;;;3.83;;
1715;SDS011;855;48.824;9.220;2023-06-10T06:39:47;6.30;;;2.90;;
1715;SDS011;855;48.824;9.220;2023-06-10T06:42:16;5.70;;;3.20;;
1715;SDS011;855;48.824;9.220;2023-06-10T06:44:44;4.43;;;3.00;;
1715;SDS011;855;48.824;9.220;2023-06-10T06:47:12;4.63;;;3.10;;
1715;SDS011;855;48.824;9.220;2023-06-10T06:49:39;5.47;;;3.17;;
1715;SDS011;855;48.824;9.220;2023-06-10T06:52:06;11.57;;;3.83;;
1715;SDS011;855;48.824;9.220;2023-06-10T06:54:33;5.27;;;3.43;;
1715;SDS011;855;48.824;9.220;2023-06-10T06:57:00;5.90;;;2.87;;
1715;SDS011;855;48.824;9.220;2023-06-10T06:59:27;6.27;;;3.70;;
1715;SDS011;855;48.824;9.220;2023-06-10T07:01:54;5.57;;;2.90;;
1715;SDS011;855;48.824;9.220;2023-06-10T07:04:22;5.97;;;3.40;;
1715;SDS011;855;48.824;9.220;2023-06-10T07:06:50;7.40;;;3.43;;
1715;SDS011;855;48.824;9.220;2023-06-10T07:09:17;4.73;;;2.80;;
1715;SDS011;855;48.824;9.220;2023-06-10T07:11:44;6.93;;;2.97;;
1715;SDS011;855;48.824;9.220;2023-06-10T07:14:10;7.03;;;3.50;;
1715;SDS011;855;48.824;9.220;2023-06-10T07:16:37;9.17;;;3.77;;
1715;SDS011;855;48.824;9.220;2023-06-10T07:19:04;4.93;;;2.70;;
1715;SDS011;855;48.824;9.220;2023-06-10T07:21:33;6.27;;;3.60;;
1715;SDS011;855;48.824;9.220;2023-06-10T07:24:00;6.77;;;3.33;;
1715;SDS011;855;48.824;9.220;2023-06-10T07:26:26;8.23;;;3.60;;
1715;SDS011;855;48.824;9.220;2023-06-10T07:28:53;4.27;;;2.47;;
1715;SDS011;855;48.824;9.220;2023-06-10T07:31:20;6.33;;;3.67;;
1715;SDS011;855;48.824;9.220;2023-06-10T07:33:47;5.10;;;3.73;;
1715;SDS011;855;48.824;9.220;2023-06-10T07:36:14;5.87;;;2.90;;
1715;SDS011;855;48.824;9.220;2023-06-10T07:38:42;6.93;;;3.23;;
1715;SDS011;855;48.824;9.220;2023-06-10T07:41:09;7.93;;;3.20;;
1715;SDS011;855;48.824;9.220;2023-06-10T07:43:36;9.20;;;4.33;;
1715;SDS011;855;48.824;9.220;2023-06-10T07:46:03;6.53;;;4.03;;
1715;SDS011;855;48.824;9.220;2023-06-10T07:48:31;4.93;;;3.73;;
1715;SDS011;855;48.824;9.220;2023-06-10T07:50:58;6.70;;;3.50;;
1715;SDS011;855;48.824;9.220;2023-06-10T07:53:24;5.95;;;3.50;;
1715;SDS011;855;48.824;9.220;2023-06-10T07:55:53;6.10;;;2.80;;
1715;SDS011;855;48.824;9.220;2023-06-10T07:58:19;6.83;;;3.73;;
1715;SDS011;855;48.824;9.220;2023-06-10T08:00:47;8.63;;;3.47;;
1715;SDS011;855;48.824;9.220;2023-06-10T08:03:14;7.63;;;4.00;;
1715;SDS011;855;48.824;9.220;2023-06-10T08:05:40;7.00;;;4.10;;
1715;SDS011;855;48.824;9.220;2023-06-10T08:08:09;4.63;;;3.37;;
1715;SDS011;855;48.824;9.220;2023-06-10T08:10:36;5.77;;;3.67;;
1715;SDS011;855;48.824;9.220;2023-06-10T08:13:04;8.50;;;3.90;;
1715;SDS011;855;48.824;9.220;2023-06-10T08:15:31;6.20;;;2.80;;
1715;SDS011;855;48.824;9.220;2023-06-10T08:17:57;4.07;;;2.90;;
1715;SDS011;855;48.824;9.220;2023-06-10T08:20:24;6.23;;;3.57;;
1715;SDS011;855;48.824;9.220;2023-06-10T08:22:51;6.13;;;3.43;;
1715;SDS011;855;48.824;9.220;2023-06-10T08:25:18;6.17;;;3.80;;
1715;SDS011;855;48.824;9.220;2023-06-10T08:27:47;13.43;;;4.77;;
1715;SDS011;855;48.824;9.220;2023-06-10T08:30:15;7.13;;;3.67;;
1715;SDS011;855;48.824;9.220;2023-06-10T08:32:43;5.00;;;3.20;;
1715;SDS011;855;48.824;9.220;2023-06-10T08:35:10;5.13;;;3.67;;
1715;SDS011;855;48.824;9.220;2023-06-10T08:37:37;6.23;;;3.63;;
1715;SDS011;855;48.824;9.220;2023-06-10T08:40:04;6.70;;;3.80;;
1715;SDS011;855;48.824;9.220;2023-06-10T08:42:36;6.97;;;3.70;;
1715;SDS011;855;48.824;9.220;2023-06-10T08:45:09;5.77;;;3.50;;
1715;SDS011;855;48.824;9.220;2023-06-10T08:47:44;6.23;;;4.17;;
1715;SDS011;855;48.824;9.220;2023-06-10T08:50:11;4.77;;;3.20;;
1715;SDS011;855;48.824;9.220;2023-06-10T08:52:40;5.80;;;3.60;;
1715;SDS011;855;48.824;9.220;2023-06-10T08:55:12;7.53;;;4.30;;
1715;SDS011;855;48.824;9.220;2023-06-10T08:57:44;6.40;;;4.37;;
1715;SDS011;855;48.824;9.220;2023-06-10T09:00:13;6.60;;;3.53;;
1715;SDS011;855;48.824;9.220;2023-06-10T09:02:41;6.80;;;3.73;;
1715;SDS011;855;48.824;9.220;2023-06-10T09:05:11;4.70;;;2.90;;
1715;SDS011;855;48.824;9.220;2023-06-10T09:07:40;4.20;;;3.10;;
1715;SDS011;855;48.824;9.220;2023-06-10T09:10:07;3.90;;;3.07;;
1715;SDS011;855;48.824;9.220;2023-06-10T09:12:35;7.10;;;3.67;;
1715;SDS011;855;48.824;9.220;2023-06-10T09:15:04;8.10;;;3.57;;
1715;SDS011;855;48.824;9.220;2023-06-10T09:17:31;7.13;;;3.57;;
1715;SDS011;855;48.824;9.220;2023-06-10T09:20:00;7.10;;;3.83;;
1715;SDS011;855;48.824;9.220;2023-06-10T09:22:28;10.83;;;4.33;;
1715;SDS011;855;48.824;9.220;2023-06-10T09:25:01;7.17;;;3.80;;
1715;SDS011;855;48.824;9.220;2023-06-10T09:27:30;5.43;;;3.50;;
1715;SDS011;855;48.824;9.220;2023-06-10T09:29:58;5.40;;;3.70;;
1715;SDS011;855;48.824;9.220;2023-06-10T09:32:25;10.00;;;4.17;;
1715;SDS011;855;48.824;9.220;2023-06-10T09:34:52;6.47;;;4.00;;
1715;SDS011;855;48.824;9.220;2023-06-10T09:37:21;5.10;;;3.40;;
1715;SDS011;855;48.824;9.220;2023-06-10T09:42:38;6.27;;;3.30;;
1715;SDS011;855;48.824;9.220;2023-06-10T09:45:05;5.73;;;3.93;;
1715;SDS011;855;48.824;9.220;2023-06-10T09:47:33;8.37;;;4.10;;
1715;SDS011;855;48.824;9.220;2023-06-10T09:50:00;8.20;;;3.17;;
1715;SDS011;855;48.824;9.220;2023-06-10T09:52:31;7.00;;;3.67;;
1715;SDS011;855;48.824;9.220;2023-06-10T09:55:01;9.50;;;3.80;;
1715;SDS011;855;48.824;9.220;2023-06-10T09:57:30;4.60;;;3.77;;
1715;SDS011;855;48.824;9.220;2023-06-10T09:59:58;5.10;;;3.37;;
1715;SDS011;855;48.824;9.220;2023-06-10T10:02:29;5.80;;;3.70;;
1715;SDS011;855;48.824;9.220;2023-06-10T10:04:59;8.93;;;3.57;;
1715;SDS011;855;48.824;9.220;2023-06-10T10:07:29;5.77;;;3.10;;
1715;SDS011;855;48.824;9.220;2023-06-10T10:09:57;5.70;;;3.50;;
1715;SDS011;855;48.824;9.220;2023-06-10T10:12:24;5.63;;;2.90;;
1715;SDS011;855;48.824;9.220;2023-06-10T10:14:52;5.37;;;2.97;;
1715;SDS011;855;48.824;9.220;2023-06-10T10:17:20;3.77;;;3.30;;
1715;SDS011;855;48.824;9.220;2023-06-10T10:19:50;6.57;;;3.83;;
1715;SDS011;855;48.824;9.220;2023-06-10T10:22:20;5.80;;;3.83;;
1715;SDS011;855;48.824;9.220;2023-06-10T10:24:52;4.20;;;3.07;;
1715;SDS011;855;48.824;9.220;2023-06-10T10:27:25;4.90;;;3.30;;
1715;SDS011;855;48.824;9.220;2023-06-10T10:29:55;6.93;;;3.13;;
1715;SDS011;855;48.824;9.220;2023-06-10T10:32:26;4.93;;;3.10;;
1715;SDS011;855;48.824;9.220;2023-06-10T10:35:03;5.90;;;3.50;;
1715;SDS011;855;48.824;9.220;2023-06-10T10:37:34;5.50;;;3.10;;
1715;SDS011;855;48.824;9.220;2023-06-10T10:40:01;7.57;;;3.60;;
1715;SDS011;855;48.824;9.220;2023-06-10T10:42:31;7.30;;;3.47;;
1715;SDS011;855;48.824;9.220;2023-06-10T10:44:59;3.90;;;3.23;;
1715;SDS011;855;48.824;9.220;2023-06-10T10:47:27;5.20;;;3.23;;
1715;SDS011;855;48.824;9.220;2023-06-10T10:49:55;4.70;;;2.93;;
1715;SDS011;855;48.824;9.220;2023-06-10T10:52:25;6.93;;;4.20;;
1715;SDS011;855;48.824;9.220;2023-06-10T10:54:53;5.77;;;3.60;;
1715;SDS011;855;48.824;9.220;2023-06-10T10:57:23;4.67;;;3.00;;
1715;SDS011;855;48.824;9.220;2023-06-10T10:59:57;5.67;;;3.63;;
1715;SDS011;855;48.824;9.220;2023-06-10T11:02:33;5.40;;;3.57;;
1715;SDS011;855;48.824;9.220;2023-06-10T11:05:08;5.93;;;3.97;;
1715;SDS011;855;48.824;9.220;2023-06-10T11:07:36;5.40;;;3.93;;
1715;SDS011;855;48.824;9.220;2023-06-10T11:10:05;6.80;;;3.57;;
1715;SDS011;855;48.824;9.220;2023-06-10T11:12:40;8.13;;;3.63;;
1715;SDS011;855;48.824;9.220;2023-06-10T11:15:19;5.93;;;3.90;;
1715;SDS011;855;48.824;9.220;2023-06-10T11:23:32;9.30;;;3.53;;
1715;SDS011;855;48.824;9.220;2023-06-10T11:26:15;10.13;;;4.43;;
1715;SDS011;855;48.824;9.220;2023-06-10T11:31:48;5.53;;;3.77;;
1715;SDS011;855;48.824;9.220;2023-06-10T11:34:22;5.63;;;3.47;;
1715;SDS011;855;48.824;9.220;2023-06-10T11:36:52;6.43;;;3.60;;
1715;SDS011;855;48.824;9.220;2023-06-10T11:39:21;4.97;;;3.70;;
1715;SDS011;855;48.824;9.220;2023-06-10T11:41:51;6.27;;;3.30;;
1715;SDS011;855;48.824;9.220;2023-06-10T11:44:18;15.13;;;3.50;;
1715;SDS011;855;48.824;9.220;2023-06-10T11:47:02;5.13;;;3.40;;
1715;SDS011;855;48.824;9.220;2023-06-10T11:49:28;5.07;;;3.20;;
1715;SDS011;855;48.824;9.220;2023-06-10T11:51:55;3.87;;;2.60;;
1715;SDS011;855;48.824;9.220;2023-06-10T11:54:22;7.33;;;4.37;;
1715;SDS011;855;48.824;9.220;2023-06-10T11:56:49;9.33;;;3.43;;
1715;SDS011;855;48.824;9.220;2023-06-10T11:59:18;5.77;;;3.60;;
1715;SDS011;855;48.824;9.220;2023-06-10T12:01:54;5.20;;;3.27;;
1715;SDS011;855;48.824;9.220;2023-06-10T12:04:21;5.40;;;3.43;;
1715;SDS011;855;48.824;9.220;2023-06-10T12:06:48;6.07;;;3.10;;
1715;SDS011;855;48.824;9.220;2023-06-10T12:09:19;4.73;;;2.97;;
1715;SDS011;855;48.824;9.220;2023-06-10T12:11:48;7.30;;;3.60;;
1715;SDS011;855;48.824;9.220;2023-06-10T12:17:19;5.50;;;3.67;;
1715;SDS011;855;48.824;9.220;2023-06-10T12:19:47;5.77;;;3.70;;
1715;SDS011;855;48.824;9.220;2023-06-10T12:22:14;5.90;;;3.10;;
1715;SDS011;855;48.824;9.220;2023-06-10T12:24:44;4.13;;;2.27;;
1715;SDS011;855;48.824;9.220;2023-06-10T12:27:12;4.73;;;2.97;;
1715;SDS011;855;48.824;9.220;2023-06-10T12:29:39;3.97;;;2.93;;
1715;SDS011;855;48.824;9.220;2023-06-10T12:32:16;4.83;;;2.87;;
1715;SDS011;855;48.824;9.220;2023-06-10T12:34:46;5.97;;;2.83;;
1715;SDS011;855;48.824;9.220;2023-06-10T12:37:13;4.07;;;2.83;;
1715;SDS011;855;48.824;9.220;2023-06-10T12:39:40;3.60;;;3.10;;
1715;SDS011;855;48.824;9.220;2023-06-10T12:42:08;3.33;;;2.40;;
1715;SDS011;855;48.824;9.220;2023-06-10T12:44:38;2.50;;;2.30;;
1715;SDS011;855;48.824;9.220;2023-06-10T12:47:09;5.43;;;3.10;;
1715;SDS011;855;48.824;9.220;2023-06-10T12:49:38;5.37;;;3.20;;
1715;SDS011;855;48.824;9.220;2023-06-10T12:52:06;3.53;;;2.37;;
1715;SDS011;855;48.824;9.220;2023-06-10T12:54:34;4.43;;;2.93;;
1715;SDS011;855;48.824;9.220;2023-06-10T12:57:01;5.23;;;3.00;;
1715;SDS011;855;48.824;9.220;2023-06-10T12:59:28;11.50;;;3.23;;
1715;SDS011;855;48.824;9.220;2023-06-10T13:01:56;3.97;;;3.00;;
1715;SDS011;855;48.824;9.220;2023-06-10T13:04:25;4.80;;;3.13;;
1715;SDS011;855;48.824;9.220;2023-06-10T13:06:52;4.13;;;2.77;;
1715;SDS011;855;48.824;9.220;2023-06-10T13:09:20;7.63;;;3.00;;
1715;SDS011;855;48.824;9.220;2023-06-10T13:11:48;5.60;;;2.90;;
1715;SDS011;855;48.824;9.220;2023-06-10T13:14:15;4.87;;;3.00;;
1715;SDS011;855;48.824;9.220;2023-06-10T13:16:42;5.77;;;2.90;;
1715;SDS011;855;48.824;9.220;2023-06-10T13:19:09;5.67;;;3.73;;
1715;SDS011;855;48.824;9.220;2023-06-10T13:21:36;3.43;;;3.33;;
1715;SDS011;855;48.824;9.220;2023-06-10T13:24:03;3.70;;;2.87;;
1715;SDS011;855;48.824;9.220;2023-06-10T13:26:32;4.53;;;2.67;;
1715;SDS011;855;48.824;9.220;2023-06-10T13:28:59;4.53;;;2.77;;
1715;SDS011;855;48.824;9.220;2023-06-10T13:31:25;6.33;;;3.07;;
1715;SDS011;855;48.824;9.220;2023-06-10T13:33:52;3.53;;;2.33;;
1715;SDS011;855;48.824;9.220;2023-06-10T13:36:19;9.73;;;3.30;;
1715;SDS011;855;48.824;9.220;2023-06-10T13:38:46;4.57;;;2.60;;
1715;SDS011;855;48.824;9.220;2023-06-10T13:41:13;3.73;;;2.20;;
1715;SDS011;855;48.824;9.220;2023-06-10T13:43:41;4.50;;;2.90;;
1715;SDS011;855;48.824;9.220;2023-06-10T13:46:11;5.50;;;2.80;;
1715;SDS011;855;48.824;9.220;2023-06-10T13:48:38;4.90;;;3.00;;
1715;SDS011;855;48.824;9.220;2023-06-10T13:51:05;7.50;;;2.70;;
1715;SDS011;855;48.824;9.220;2023-06-10T13:53:34;3.33;;;2.50;;
1715;SDS011;855;48.824;9.220;2023-06-10T13:56:00;5.17;;;2.83;;
1715;SDS011;855;48.824;9.220;2023-06-10T13:58:27;3.90;;;2.87;;
1715;SDS011;855;48.824;9.220;2023-06-10T14:00:55;4.20;;;2.67;;
1715;SDS011;855;48.824;9.220;2023-06-10T14:03:23;3.43;;;2.43;;
1715;SDS011;855;48.824;9.220;2023-06-10T14:05:50;3.67;;;2.60;;
1715;SDS011;855;48.824;9.220;2023-06-10T14:08:18;5.20;;;3.27;;
1715;SDS011;855;48.824;9.220;2023-06-10T14:10:46;6.13;;;3.60;;
1715;SDS011;855;48.824;9.220;2023-06-10T14:13:16;10.43;;;3.03;;
1715;SDS011;855;48.824;9.220;2023-06-10T14:15:43;6.20;;;2.33;;
1715;SDS011;855;48.824;9.220;2023-06-10T14:18:11;5.57;;;2.93;;
1715;SDS011;855;48.824;9.220;2023-06-10T14:20:40;4.03;;;3.03;;
1715;SDS011;855;48.824;9.220;2023-06-10T14:23:09;3.47;;;2.73;;
1715;SDS011;855;48.824;9.220;2023-06-10T14:25:36;4.97;;;2.80;;
1715;SDS011;855;48.824;9.220;2023-06-10T14:28:04;3.97;;;2.53;;
1715;SDS011;855;48.824;9.220;2023-06-10T14:30:31;4.63;;;3.07;;
1715;SDS011;855;48.824;9.220;2023-06-10T14:32:58;6.73;;;3.37;;
1715;SDS011;855;48.824;9.220;2023-06-10T14:35:26;4.53;;;3.47;;
1715;SDS011;855;48.824;9.220;2023-06-10T14:37:53;7.73;;;3.63;;
1715;SDS011;855;48.824;9.220;2023-06-10T14:40:22;5.37;;;3.70;;
1715;SDS011;855;48.824;9.220;2023-06-10T14:42:51;3.50;;;2.70;;
1715;SDS011;855;48.824;9.220;2023-06-10T14:45:18;7.37;;;3.83;;
1715;SDS011;855;48.824;9.220;2023-06-10T14:47:45;4.20;;;2.77;;
1715;SDS011;855;48.824;9.220;2023-06-10T14:50:12;4.10;;;2.93;;
1715;SDS011;855;48.824;9.220;2023-06-10T14:52:41;5.30;;;3.00;;
1715;SDS011;855;48.824;9.220;2023-06-10T14:55:08;4.10;;;3.03;;
1715;SDS011;855;48.824;9.220;2023-06-10T14:57:35;6.13;;;3.10;;
1715;SDS011;855;48.824;9.220;2023-06-10T15:00:02;8.73;;;3.97;;
1715;SDS011;855;48.824;9.220;2023-06-10T15:02:29;10.13;;;4.37;;
1715;SDS011;855;48.824;9.220;2023-06-10T15:04:56;4.97;;;3.13;;
1715;SDS011;855;48.824;9.220;2023-06-10T15:07:22;7.33;;;3.80;;
1715;SDS011;855;48.824;9.220;2023-06-10T15:09:51;7.43;;;3.70;;
1715;SDS011;855;48.824;9.220;2023-06-10T15:12:17;5.40;;;3.47;;
1715;SDS011;855;48.824;9.220;2023-06-10T15:14:44;5.27;;;3.73;;
1715;SDS011;855;48.824;9.220;2023-06-10T15:17:11;6.10;;;3.60;;
1715;SDS011;855;48.824;9.220;2023-06-10T15:19:38;7.37;;;3.90;;
1715;SDS011;855;48.824;9.220;2023-06-10T15:22:05;5.70;;;3.97;;
1715;SDS011;855;48.824;9.220;2023-06-10T15:24:32;10.10;;;3.73;;
1715;SDS011;855;48.824;9.220;2023-06-10T15:27:00;5.03;;;3.33;;
1715;SDS011;855;48.824;9.220;2023-06-10T15:29:27;5.70;;;3.60;;
1715;SDS011;855;48.824;9.220;2023-06-10T15:31:53;4.67;;;3.03;;
1715;SDS011;855;48.824;9.220;2023-06-10T15:34:20;4.00;;;3.23;;
1715;SDS011;855;48.824;9.220;2023-06-10T15:36:47;5.07;;;3.17;;
1715;SDS011;855;48.824;9.220;2023-06-10T15:39:14;3.83;;;3.63;;
1715;SDS011;855;48.824;9.220;2023-06-10T15:41:41;4.90;;;3.27;;
1715;SDS011;855;48.824;9.220;2023-06-10T15:44:09;6.23;;;2.80;;